createdAt,value
2019-02-22T00:02:19.668Z,99172.62
2019-02-22T00:04:50.574Z,99177.83
2019-02-22T00:07:21.584Z,99170.41
2019-02-22T00:09:52.652Z,99166.42
2019-02-22T00:12:24.085Z,99175.03
2019-02-22T00:14:55.080Z,99172.78
2019-02-22T00:17:26.030Z,99168.84
2019-02-22T00:19:57.025Z,99171.34
2019-02-22T00:22:27.985Z,99166.55
2019-02-22T00:24:59.071Z,99168.34
2019-02-22T00:27:30.068Z,99176.53
2019-02-22T00:30:01.028Z,99179.65
2019-02-22T00:32:32.018Z,99176.61
2019-02-22T00:35:03.126Z,99175.75
2019-02-22T00:37:34.150Z,99170.11
2019-02-22T00:40:06.155Z,99172.61
2019-02-22T00:42:37.206Z,99169.27
2019-02-22T00:45:08.216Z,99169.30
2019-02-22T00:47:39.198Z,99160.86
2019-02-22T00:50:10.252Z,99164.36
2019-02-22T00:52:41.138Z,99165.88
2019-02-22T00:55:12.026Z,99157.28
2019-02-22T00:57:42.987Z,99162.44
2019-02-22T01:00:14.122Z,99158.12
2019-02-22T01:02:45.092Z,99156.81
2019-02-22T01:05:16.136Z,99161.65
2019-02-22T01:07:47.293Z,99158.70
2019-02-22T01:10:18.212Z,99167.41
2019-02-22T01:12:49.192Z,99168.30
2019-02-22T01:15:20.230Z,99164.39
2019-02-22T01:17:51.104Z,99171.39
2019-02-22T01:20:22.132Z,99174.45
2019-02-22T01:22:53.094Z,99177.49
2019-02-22T01:25:24.255Z,99176.66
2019-02-22T01:27:55.162Z,99178.79
2019-02-22T01:30:26.034Z,99181.41
2019-02-22T01:32:56.934Z,99181.00
2019-02-22T01:35:27.944Z,99186.59
2019-02-22T01:37:58.948Z,99186.15
2019-02-22T01:40:29.988Z,99187.49
2019-02-22T01:43:00.967Z,99189.62
2019-02-22T01:45:31.875Z,99196.13
2019-02-22T01:48:02.742Z,99197.42
2019-02-22T01:50:33.688Z,99198.77
2019-02-22T01:53:04.661Z,99200.95
2019-02-22T01:55:36.045Z,99191.41
2019-02-22T01:58:06.907Z,99200.06
2019-02-22T02:00:38.159Z,99189.65
2019-02-22T02:03:09.041Z,99194.92
2019-02-22T02:05:39.987Z,99199.70
2019-02-22T02:08:11.113Z,99197.56
2019-02-22T02:10:42.463Z,99196.69
2019-02-22T02:13:13.403Z,99196.25
2019-02-22T02:15:44.447Z,99198.87
2019-02-22T02:18:15.487Z,99201.42
2019-02-22T02:20:46.728Z,99198.75
2019-02-22T02:23:17.787Z,99196.03
2019-02-22T02:25:48.869Z,99193.34
2019-02-22T02:28:19.882Z,99200.58
2019-02-22T02:30:50.838Z,99203.94
2019-02-22T02:33:21.810Z,99201.76
2019-02-22T02:35:52.859Z,99204.33
2019-02-22T02:38:23.831Z,99202.17
2019-02-22T02:41:06.858Z,99205.12
2019-02-22T02:43:27.433Z,99209.02
2019-02-22T02:45:58.302Z,99205.59
2019-02-22T02:48:29.309Z,99210.91
2019-02-22T02:51:00.262Z,99201.05
2019-02-22T02:53:31.280Z,99194.98
2019-02-22T02:56:02.258Z,99206.54
2019-02-22T02:58:33.284Z,99204.73
2019-02-22T03:01:04.255Z,99207.67
2019-02-22T03:03:35.208Z,99209.44
2019-02-22T03:06:16.775Z,99205.08
2019-02-22T03:08:47.800Z,99219.33
2019-02-22T03:11:21.108Z,99216.52
2019-02-22T03:13:51.296Z,99223.66
2019-02-22T03:16:22.208Z,99229.33
2019-02-22T03:18:53.266Z,99226.85
2019-02-22T03:21:24.221Z,99235.08
2019-02-22T03:23:55.090Z,99237.70
2019-02-22T03:26:26.032Z,99233.30
2019-02-22T03:28:56.932Z,99236.38
2019-02-22T03:31:28.001Z,99234.20
2019-02-22T03:33:58.914Z,99232.89
2019-02-22T03:36:29.904Z,99239.30
2019-02-22T03:39:00.869Z,99241.00
2019-02-22T03:41:33.458Z,99245.73
2019-02-22T03:44:04.680Z,99248.76
2019-02-22T03:46:35.649Z,99255.16
2019-02-22T03:49:06.571Z,99249.52
2019-02-22T03:51:37.646Z,99247.34
2019-02-22T03:54:08.584Z,99255.91
2019-02-22T03:56:40.036Z,99248.53
2019-02-22T03:59:11.061Z,99244.15
2019-02-22T04:01:42.089Z,99236.70
2019-02-22T04:04:13.393Z,99236.22
2019-02-22T04:06:44.463Z,99249.15
2019-02-22T04:09:15.357Z,99249.59
2019-02-22T04:11:46.597Z,99249.98
2019-02-22T04:14:17.635Z,99256.48
2019-02-22T04:16:48.588Z,99255.59
2019-02-22T04:19:19.624Z,99253.80
2019-02-22T04:21:50.716Z,99253.77
2019-02-22T04:24:21.725Z,99251.06
2019-02-22T04:26:52.680Z,99254.45
2019-02-22T04:29:23.662Z,99253.64
2019-02-22T04:31:54.644Z,99259.81
2019-02-22T04:34:25.514Z,99265.85
2019-02-22T04:36:56.392Z,99267.59
2019-02-22T04:39:27.292Z,99265.89
2019-02-22T04:41:58.521Z,99265.88
2019-02-22T04:44:29.456Z,99264.11
2019-02-22T04:47:00.442Z,99273.23
2019-02-22T04:49:31.327Z,99271.93
2019-02-22T04:52:02.224Z,99272.33
2019-02-22T04:54:33.145Z,99276.59
2019-02-22T04:57:04.204Z,99274.44
2019-02-22T04:59:35.230Z,99272.33
2019-02-22T05:02:06.431Z,99268.43
2019-02-22T05:04:37.453Z,99269.75
2019-02-22T05:07:08.493Z,99273.66
2019-02-22T05:09:39.511Z,99274.56
2019-02-22T05:12:11.342Z,99281.06
2019-02-22T05:14:42.469Z,99274.11
2019-02-22T05:17:13.402Z,99285.81
2019-02-22T05:19:44.287Z,99292.77
2019-02-22T05:22:18.263Z,99297.95
2019-02-22T05:24:48.624Z,99295.77
2019-02-22T05:27:21.277Z,99307.06
2019-02-22T05:29:52.265Z,99298.93
2019-02-22T05:32:23.333Z,99304.98
2019-02-22T05:34:54.304Z,99318.42
2019-02-22T05:37:25.245Z,99321.91
2019-02-22T05:39:56.375Z,99315.39
2019-02-22T05:42:28.691Z,99320.63
2019-02-22T05:44:59.724Z,99318.02
2019-02-22T05:47:30.919Z,99325.38
2019-02-22T05:50:01.926Z,99328.44
2019-02-22T05:52:33.255Z,99318.76
2019-02-22T05:57:40.227Z,99328.78
2019-02-22T06:00:11.372Z,99337.41
2019-02-22T06:02:42.350Z,99343.95
2019-02-22T06:05:13.327Z,99339.20
2019-02-22T06:07:44.294Z,99342.67
2019-02-22T06:10:15.363Z,99343.54
2019-02-22T06:12:46.471Z,99345.73
2019-02-22T06:15:17.497Z,99349.19
2019-02-22T06:17:48.501Z,99350.52
2019-02-22T06:20:19.540Z,99344.45
2019-02-22T06:22:50.474Z,99349.23
2019-02-22T06:25:21.462Z,99354.84
2019-02-22T06:27:52.360Z,99363.06
2019-02-22T06:30:23.438Z,99365.42
2019-02-22T06:32:54.411Z,99370.64
2019-02-22T06:35:25.291Z,99371.08
2019-02-22T06:37:56.272Z,99370.64
2019-02-22T06:40:27.210Z,99378.42
2019-02-22T06:42:58.249Z,99379.20
2019-02-22T06:45:29.196Z,99381.33
2019-02-22T06:48:00.169Z,99378.23
2019-02-22T06:50:34.038Z,99383.87
2019-02-22T06:53:04.099Z,99379.62
2019-02-22T06:55:35.051Z,99378.76
2019-02-22T06:58:06.001Z,99381.34
2019-02-22T07:00:36.943Z,99390.00
2019-02-22T07:03:07.913Z,99392.64
2019-02-22T07:05:38.949Z,99401.70
2019-02-22T07:08:09.995Z,99396.42
2019-02-22T07:10:57.441Z,99399.84
2019-02-22T07:13:28.449Z,99408.86
2019-02-22T07:15:59.467Z,99411.34
2019-02-22T07:18:30.492Z,99412.98
2019-02-22T07:21:01.444Z,99418.98
2019-02-22T07:23:32.338Z,99421.95
2019-02-22T07:26:03.297Z,99429.69
2019-02-22T07:28:34.267Z,99429.28
2019-02-22T07:31:05.311Z,99433.14
2019-02-22T07:33:36.244Z,99433.08
2019-02-22T07:36:07.327Z,99437.05
2019-02-22T07:38:38.297Z,99442.25
2019-02-22T07:41:09.770Z,99440.90
2019-02-22T07:43:40.849Z,99446.84
2019-02-22T07:46:11.823Z,99440.76
2019-02-22T07:48:42.778Z,99451.53
2019-02-22T07:51:13.683Z,99457.11
2019-02-22T07:53:44.581Z,99463.03
2019-02-22T07:56:15.456Z,99462.11
2019-02-22T07:58:46.506Z,99467.27
2019-02-22T08:01:17.521Z,99467.77
2019-02-22T08:03:48.473Z,99478.22
2019-02-22T08:06:19.563Z,99477.67
2019-02-22T08:08:50.581Z,99485.92
2019-02-22T08:11:21.582Z,99486.70
2019-02-22T08:13:52.548Z,99484.20
2019-02-22T08:16:23.487Z,99489.29
2019-02-22T08:19:01.469Z,99488.79
2019-02-22T08:21:27.338Z,99488.25
2019-02-22T08:23:58.555Z,99487.75
2019-02-22T08:26:29.582Z,99482.00
2019-02-22T08:29:00.675Z,99478.80
2019-02-22T08:31:31.564Z,99477.58
2019-02-22T08:34:02.546Z,99482.09
2019-02-22T08:36:33.539Z,99495.31
2019-02-22T08:39:04.880Z,99499.25
2019-02-22T08:41:35.928Z,99494.87
2019-02-22T08:44:06.896Z,99509.35
2019-02-22T08:46:37.861Z,99506.10
2019-02-22T08:49:08.743Z,99510.69
2019-02-22T08:51:39.888Z,99507.14
2019-02-22T08:54:10.784Z,99509.85
2019-02-22T08:56:41.798Z,99512.70
2019-02-22T08:59:12.787Z,99509.45
2019-02-22T09:01:43.670Z,99521.08
2019-02-22T09:04:14.626Z,99521.61
2019-02-22T09:06:45.592Z,99532.70
2019-02-22T09:09:16.591Z,99539.17
2019-02-22T09:11:47.722Z,99529.84
2019-02-22T09:14:18.786Z,99542.09
2019-02-22T09:16:49.834Z,99545.57
2019-02-22T09:19:20.775Z,99547.50
2019-02-22T09:21:51.819Z,99545.34
2019-02-22T09:24:22.804Z,99546.16
2019-02-22T09:26:54.205Z,99545.41
2019-02-22T09:29:25.371Z,99555.05
2019-02-22T09:31:56.316Z,99555.08
2019-02-22T09:34:27.292Z,99554.13
2019-02-22T09:36:59.007Z,99554.16
2019-02-22T09:39:29.994Z,99559.48
2019-02-22T09:42:01.037Z,99561.20
2019-02-22T09:44:31.977Z,99565.05
2019-02-22T09:47:02.934Z,99558.45
2019-02-22T09:49:33.924Z,99566.61
2019-02-22T09:52:04.956Z,99569.55
2019-02-22T09:54:35.935Z,99572.73
2019-02-22T09:57:07.488Z,99583.30
2019-02-22T09:59:38.504Z,99579.97
2019-02-22T10:02:09.479Z,99587.53
2019-02-22T10:04:40.488Z,99589.17
2019-02-22T10:07:11.546Z,99584.20
2019-02-22T10:09:42.401Z,99591.09
2019-02-22T10:12:13.379Z,99582.23
2019-02-22T10:14:44.356Z,99592.69
2019-02-22T10:17:15.445Z,99584.80
2019-02-22T10:19:46.374Z,99575.33
2019-02-22T10:22:17.382Z,99581.58
2019-02-22T10:24:48.331Z,99596.59
2019-02-22T10:27:19.343Z,99596.06
2019-02-22T10:29:50.409Z,99603.22
2019-02-22T10:32:21.325Z,99601.45
2019-02-22T10:34:52.308Z,99611.55
2019-02-22T10:37:23.351Z,99617.58
2019-02-22T10:39:54.396Z,99617.58
2019-02-22T10:42:25.387Z,99622.19
2019-02-22T10:44:56.426Z,99624.66
2019-02-22T10:47:27.455Z,99631.41
2019-02-22T10:49:58.544Z,99628.23
2019-02-22T10:52:29.552Z,99633.86
2019-02-22T10:55:00.697Z,99638.59
2019-02-22T10:57:31.795Z,99638.94
2019-02-22T11:00:02.911Z,99641.76
2019-02-22T11:02:34.010Z,99642.17
2019-02-22T11:05:05.126Z,99651.97
2019-02-22T11:07:37.262Z,99651.61
2019-02-22T11:10:13.111Z,99652.70
2019-02-22T11:12:44.238Z,99653.66
2019-02-22T11:15:15.629Z,99657.20
2019-02-22T11:17:46.634Z,99656.52
2019-02-22T11:20:17.559Z,99661.92
2019-02-22T11:22:48.604Z,99665.72
2019-02-22T11:25:19.543Z,99659.27
2019-02-22T11:27:50.631Z,99658.50
2019-02-22T11:30:21.676Z,99657.84
2019-02-22T11:32:52.640Z,99658.22
2019-02-22T11:35:23.695Z,99654.20
2019-02-22T11:37:54.895Z,99658.38
2019-02-22T11:40:25.821Z,99670.88
2019-02-22T11:42:56.884Z,99671.17
2019-02-22T11:45:28.073Z,99674.64
2019-02-22T11:48:08.651Z,99669.64
2019-02-22T11:50:31.729Z,99675.03
2019-02-22T11:53:02.617Z,99675.03
2019-02-22T11:55:33.823Z,99673.47
2019-02-22T11:58:04.818Z,99680.52
2019-02-22T12:00:35.763Z,99672.98
2019-02-22T12:03:21.140Z,99674.44
2019-02-22T12:05:39.458Z,99670.17
2019-02-22T12:08:10.422Z,99664.59
2019-02-22T12:10:41.514Z,99668.92
2019-02-22T12:13:12.460Z,99672.40
2019-02-22T12:15:43.562Z,99670.59
2019-02-22T12:18:14.463Z,99680.50
2019-02-22T12:20:45.616Z,99695.32
2019-02-22T12:23:16.635Z,99686.63
2019-02-22T12:25:47.660Z,99690.81
2019-02-22T12:28:18.760Z,99695.06
2019-02-22T12:30:49.865Z,99691.28
2019-02-22T12:33:21.126Z,99694.66
2019-02-22T12:35:52.118Z,99695.34
2019-02-22T12:38:23.437Z,99700.19
2019-02-22T12:40:54.458Z,99692.70
2019-02-22T12:43:25.434Z,99694.89
2019-02-22T12:45:56.452Z,99691.06
2019-02-22T12:48:27.606Z,99693.16
2019-02-22T12:50:58.766Z,99696.33
2019-02-22T12:53:29.801Z,99693.45
2019-02-22T12:56:00.644Z,99696.12
2019-02-22T12:58:31.669Z,99703.56
2019-02-22T13:01:02.712Z,99708.41
2019-02-22T13:03:33.689Z,99708.62
2019-02-22T13:06:04.704Z,99706.68
2019-02-22T13:08:35.872Z,99710.34
2019-02-22T13:11:07.007Z,99719.57
2019-02-22T13:13:38.029Z,99718.05
2019-02-22T13:16:09.012Z,99722.08
2019-02-22T13:18:39.902Z,99715.75
2019-02-22T13:21:10.846Z,99717.69
2019-02-22T13:23:41.750Z,99732.73
2019-02-22T13:26:12.661Z,99729.92
2019-02-22T13:28:43.709Z,99736.97
2019-02-22T13:31:14.694Z,99737.91
2019-02-22T13:33:45.683Z,99744.00
2019-02-22T13:36:16.712Z,99745.55
2019-02-22T13:38:47.629Z,99752.25
2019-02-22T13:41:18.601Z,99753.11
2019-02-22T13:43:49.637Z,99760.09
2019-02-22T13:46:20.810Z,99766.11
2019-02-22T13:48:51.829Z,99763.50
2019-02-22T13:51:22.907Z,99758.23
2019-02-22T13:53:53.842Z,99770.93
2019-02-22T13:56:29.547Z,99771.80
2019-02-22T13:58:57.486Z,99777.94
2019-02-22T14:01:28.367Z,99775.33
2019-02-22T14:03:59.430Z,99777.78
2019-02-22T14:06:30.391Z,99777.72
2019-02-22T14:09:01.647Z,99779.20
2019-02-22T14:11:32.490Z,99780.79
2019-02-22T14:14:03.384Z,99783.19
2019-02-22T14:16:35.936Z,99789.61
2019-02-22T14:19:06.959Z,99790.35
2019-02-22T14:21:37.910Z,99790.33
2019-02-22T14:24:09.814Z,99787.83
2019-02-22T14:26:40.755Z,99795.30
2019-02-22T14:29:11.706Z,99793.98
2019-02-22T14:31:42.741Z,99796.80
2019-02-22T14:34:13.618Z,99790.69
2019-02-22T14:36:45.135Z,99800.61
2019-02-22T14:39:16.172Z,99805.41
2019-02-22T14:41:47.106Z,99797.53
2019-02-22T14:44:18.155Z,99799.70
2019-02-22T14:46:49.289Z,99804.89
2019-02-22T14:49:20.150Z,99807.98
2019-02-22T14:51:51.080Z,99811.73
2019-02-22T14:54:22.201Z,99805.07
2019-02-22T14:56:53.181Z,99806.09
2019-02-22T14:59:24.182Z,99810.84
2019-02-22T15:01:55.125Z,99818.22
2019-02-22T15:04:26.090Z,99813.93
2019-02-22T15:06:57.128Z,99820.70
2019-02-22T15:09:28.151Z,99815.98
2019-02-22T15:11:59.171Z,99821.02
2019-02-22T15:14:30.138Z,99820.03
2019-02-22T15:17:02.973Z,99813.00
2019-02-22T15:19:34.001Z,99813.95
2019-02-22T15:22:05.004Z,99817.22
2019-02-22T15:24:36.001Z,99816.74
2019-02-22T15:27:06.974Z,99815.16
2019-02-22T15:29:37.881Z,99810.88
2019-02-22T15:32:08.941Z,99809.27
2019-02-22T15:34:39.774Z,99817.15
2019-02-22T15:37:10.742Z,99817.95
2019-02-22T15:39:41.751Z,99823.88
2019-02-22T15:42:12.948Z,99826.48
2019-02-22T15:44:44.253Z,99826.73
2019-02-22T15:47:15.193Z,99831.80
2019-02-22T15:49:48.499Z,99835.09
2019-02-22T15:52:18.717Z,99840.16
2019-02-22T15:54:49.681Z,99842.97
2019-02-22T15:57:20.803Z,99848.77
2019-02-22T15:59:51.782Z,99847.19
2019-02-22T16:02:22.685Z,99842.55
2019-02-22T16:04:55.382Z,99846.27
2019-02-22T16:07:26.365Z,99848.97
2019-02-22T16:09:57.306Z,99849.50
2019-02-22T16:12:28.333Z,99848.91
2019-02-22T16:14:59.237Z,99853.75
2019-02-22T16:17:30.333Z,99853.33
2019-02-22T16:20:01.499Z,99857.42
2019-02-22T16:22:32.461Z,99855.02
2019-02-22T16:25:03.451Z,99862.44
2019-02-22T16:27:34.314Z,99864.23
2019-02-22T16:30:11.603Z,99865.27
2019-02-22T16:32:42.535Z,99874.98
2019-02-22T16:35:14.040Z,99877.27
2019-02-22T16:37:45.032Z,99885.69
2019-02-22T16:40:16.126Z,99891.61
2019-02-22T16:42:47.203Z,99892.21
2019-02-22T16:45:18.297Z,99894.11
2019-02-22T16:47:49.474Z,99893.38
2019-02-22T16:50:20.435Z,99894.75
2019-02-22T16:52:51.378Z,99896.98
2019-02-22T16:55:22.491Z,99910.47
2019-02-22T16:57:53.560Z,99901.43
2019-02-22T17:00:24.423Z,99903.23
2019-02-22T17:02:55.473Z,99911.95
2019-02-22T17:05:26.314Z,99919.80
2019-02-22T17:07:57.294Z,99919.41
2019-02-22T17:10:28.316Z,99920.31
2019-02-22T17:12:59.257Z,99927.25
2019-02-22T17:15:30.289Z,99932.02
2019-02-22T17:18:01.407Z,99933.78
2019-02-22T17:20:32.384Z,99932.48
2019-02-22T17:23:03.370Z,99934.20
2019-02-22T17:25:34.390Z,99932.91
2019-02-22T17:28:05.437Z,99938.97
2019-02-22T17:30:36.461Z,99946.80
2019-02-22T17:33:07.536Z,99948.53
2019-02-22T17:35:38.400Z,99953.30
2019-02-22T17:38:09.298Z,99953.73
2019-02-22T17:40:40.192Z,99957.22
2019-02-22T17:43:11.151Z,99950.78
2019-02-22T17:45:42.173Z,99959.05
2019-02-22T17:48:13.038Z,99961.64
2019-02-22T17:50:44.002Z,99961.66
2019-02-22T17:53:15.017Z,99959.52
2019-02-22T17:55:45.934Z,99956.06
2019-02-22T17:58:24.090Z,99952.61
2019-02-22T18:00:49.857Z,99962.09
2019-02-22T18:03:20.797Z,99966.39
2019-02-22T18:05:51.799Z,99970.70
2019-02-22T18:08:22.757Z,99983.24
2019-02-22T18:10:59.211Z,99984.52
2019-02-22T18:13:30.258Z,99986.20
2019-02-22T18:16:01.287Z,99993.98
2019-02-22T18:18:32.218Z,99998.25
2019-02-22T18:21:03.356Z,100002.54
2019-02-22T18:23:34.399Z,100004.23
2019-02-22T18:26:05.450Z,100016.70
2019-02-22T18:28:36.499Z,100019.27
2019-02-22T18:31:07.372Z,100023.55
2019-02-22T18:33:38.243Z,100028.27
2019-02-22T18:36:09.160Z,100039.02
2019-02-22T18:38:40.186Z,100035.53
2019-02-22T18:41:11.090Z,100045.48
2019-02-22T18:43:42.127Z,100050.59
2019-02-22T18:46:13.141Z,100052.62
2019-02-22T18:48:44.095Z,100059.45
2019-02-22T18:51:14.946Z,100060.68
2019-02-22T18:53:46.016Z,100060.59
2019-02-22T18:56:17.282Z,100067.53
2019-02-22T18:58:48.326Z,100065.34
2019-02-22T19:01:19.244Z,100076.12
2019-02-22T19:03:50.364Z,100079.48
2019-02-22T19:06:21.251Z,100082.09
2019-02-22T19:08:52.318Z,100081.53
2019-02-22T19:11:23.216Z,100085.73
2019-02-22T19:13:54.179Z,100087.77
2019-02-22T19:16:25.067Z,100089.36
2019-02-22T19:18:56.064Z,100090.17
2019-02-22T19:21:26.969Z,100088.42
2019-02-22T19:23:57.930Z,100090.12
2019-02-22T19:26:28.999Z,100097.84
2019-02-22T19:28:59.881Z,100103.91
2019-02-22T19:31:30.814Z,100108.51
2019-02-22T19:34:01.778Z,100107.92
2019-02-22T19:36:32.914Z,100099.19
2019-02-22T19:39:04.461Z,100108.20
2019-02-22T19:41:35.522Z,100120.22
2019-02-22T19:44:06.440Z,100126.70
2019-02-22T19:46:37.475Z,100124.91
2019-02-22T19:49:08.344Z,100118.80
2019-02-22T19:51:39.402Z,100132.47
2019-02-22T19:54:10.415Z,100131.99
2019-02-22T19:56:41.398Z,100132.89
2019-02-22T19:59:12.376Z,100135.08
2019-02-22T20:01:43.372Z,100135.92
2019-02-22T20:04:14.411Z,100138.34
2019-02-22T20:06:45.449Z,100135.98
2019-02-22T20:09:16.445Z,100143.66
2019-02-22T20:11:48.701Z,100144.98
2019-02-22T20:14:19.779Z,100151.19
2019-02-22T20:16:50.789Z,100158.00
2019-02-22T20:19:21.835Z,100152.27
2019-02-22T20:21:52.697Z,100155.62
2019-02-22T20:24:23.681Z,100166.13
2019-02-22T20:26:54.706Z,100162.47
2019-02-22T20:29:25.609Z,100160.69
2019-02-22T20:31:56.553Z,100173.44
2019-02-22T20:34:27.668Z,100169.44
2019-02-22T20:36:58.532Z,100171.94
2019-02-22T20:39:29.577Z,100172.53
2019-02-22T20:42:00.539Z,100171.59
2019-02-22T20:44:31.599Z,100172.98
2019-02-22T20:47:02.600Z,100176.44
2019-02-22T20:49:33.871Z,100175.74
2019-02-22T20:52:04.820Z,100176.51
2019-02-22T20:54:35.689Z,100174.27
2019-02-22T20:57:06.653Z,100181.45
2019-02-22T20:59:37.568Z,100184.41
2019-02-22T21:02:08.586Z,100192.30
2019-02-22T21:04:39.606Z,100186.72
2019-02-22T21:07:10.744Z,100193.50
2019-02-22T21:09:41.810Z,100196.23
2019-02-22T21:12:12.972Z,100199.16
2019-02-22T21:14:43.843Z,100193.16
2019-02-22T21:17:14.827Z,100197.52
2019-02-22T21:19:45.677Z,100201.69
2019-02-22T21:22:16.915Z,100205.44
2019-02-22T21:24:48.120Z,100210.77
2019-02-22T21:27:18.980Z,100217.50
2019-02-22T21:29:50.005Z,100225.52
2019-02-22T21:32:20.896Z,100225.52
2019-02-22T21:34:51.861Z,100231.98
2019-02-22T21:37:23.309Z,100234.20
2019-02-22T21:39:54.297Z,100241.59
2019-02-22T21:42:25.153Z,100246.33
2019-02-22T21:44:56.136Z,100252.25
2019-02-22T21:47:27.144Z,100249.99
2019-02-22T21:49:58.105Z,100246.50
2019-02-22T21:52:29.237Z,100244.03
2019-02-22T21:55:00.321Z,100248.21
2019-02-22T21:57:31.249Z,100249.27
2019-02-22T22:00:02.211Z,100259.52
2019-02-22T22:02:33.296Z,100252.80
2019-02-22T22:05:04.433Z,100256.84
2019-02-22T22:07:35.272Z,100248.30
2019-02-22T22:10:08.163Z,100244.26
2019-02-22T22:12:39.212Z,100234.66
2019-02-22T22:15:16.226Z,100240.81
2019-02-22T22:17:47.179Z,100247.15
2019-02-22T22:20:18.146Z,100241.05
2019-02-22T22:22:49.229Z,100238.66
2019-02-22T22:25:20.304Z,100244.47
2019-02-22T22:27:51.424Z,100247.72
2019-02-22T22:30:22.446Z,100243.16
2019-02-22T22:32:53.520Z,100253.09
2019-02-22T22:35:24.562Z,100256.38
2019-02-22T22:37:55.512Z,100262.59
2019-02-22T22:40:26.590Z,100260.17
2019-02-22T22:42:57.571Z,100267.55
2019-02-22T22:45:28.605Z,100269.84
2019-02-22T22:47:59.465Z,100271.73
2019-02-22T22:50:30.375Z,100268.03
2019-02-22T22:53:02.056Z,100257.64
2019-02-22T22:55:33.020Z,100259.19
2019-02-22T22:58:03.989Z,100258.52
2019-02-22T23:00:45.863Z,100264.07
2019-02-22T23:03:17.190Z,100258.38
2019-02-22T23:05:48.267Z,100248.03
2019-02-22T23:08:20.976Z,100254.78
2019-02-22T23:10:52.018Z,100249.94
2019-02-22T23:13:23.107Z,100243.15
2019-02-22T23:15:54.139Z,100249.59
2019-02-22T23:18:25.191Z,100254.37
2019-02-22T23:20:56.106Z,100256.69
2019-02-22T23:23:27.146Z,100263.67
2019-02-22T23:25:58.092Z,100270.83
2019-02-22T23:28:28.987Z,100276.63
2019-02-22T23:30:59.950Z,100277.75
2019-02-22T23:33:30.944Z,100280.99
2019-02-22T23:36:01.896Z,100280.80
2019-02-22T23:38:32.830Z,100283.69
2019-02-22T23:41:03.714Z,100285.78
2019-02-22T23:43:34.839Z,100281.72
2019-02-22T23:46:05.782Z,100277.63
2019-02-22T23:48:36.713Z,100278.98
2019-02-22T23:51:07.756Z,100272.18
2019-02-22T23:53:38.743Z,100285.55
2019-02-22T23:56:09.807Z,100294.45
2019-02-22T23:58:40.781Z,100299.50
